sensor_id;sensor_type;location;lat;lon;timestamp;pressure;altitude;pressure_sealevel;temperature
37414;BMP280;23279;46.472;30.760;2022-07-18T06:56:29;78394.13;;;-146.33
37414;BMP280;23279;46.472;30.760;2022-07-18T06:58:54;78381.91;;;-146.33
37414;BMP280;23279;46.472;30.760;2022-07-18T07:01:21;78383.94;;;-146.33
37414;BMP280;23279;46.472;30.760;2022-07-18T07:03:47;78373.75;;;-146.33
37414;BMP280;23279;46.472;30.760;2022-07-18T07:06:13;78373.75;;;-146.33
37414;BMP280;23279;46.472;30.760;2022-07-18T07:08:41;78365.63;;;-146.33
37414;BMP280;23279;46.472;30.760;2022-07-18T07:11:06;78363.59;;;-146.33
37414;BMP280;23279;46.472;30.760;2022-07-18T07:13:32;78383.94;;;-146.33
37414;BMP280;23279;46.472;30.760;2022-07-18T07:15:58;78383.94;;;-146.33
37414;BMP280;23279;46.472;30.760;2022-07-18T07:18:23;78367.66;;;-146.33
37414;BMP280;23279;46.472;30.760;2022-07-18T07:20:49;78361.56;;;-146.33
37414;BMP280;23279;46.472;30.760;2022-07-18T07:23:17;78343.25;;;-146.33
37414;BMP280;23279;46.472;30.760;2022-07-18T07:25:43;78341.19;;;-146.33
37414;BMP280;23279;46.472;30.760;2022-07-18T07:28:08;78349.34;;;-146.33
37414;BMP280;23279;46.472;30.760;2022-07-18T07:30:34;78357.47;;;-146.33
37414;BMP280;23279;46.472;30.760;2022-07-18T07:33:00;78337.13;;;-146.33
37414;BMP280;23279;46.472;30.760;2022-07-18T07:35:26;78322.88;;;-146.33
37414;BMP280;23279;46.472;30.760;2022-07-18T07:37:53;78310.69;;;-146.33
37414;BMP280;23279;46.472;30.760;2022-07-18T07:40:20;78329.00;;;-146.33
37414;BMP280;23279;46.472;30.760;2022-07-18T07:42:46;78333.06;;;-146.33
37414;BMP280;23279;46.472;30.760;2022-07-18T07:45:12;78316.78;;;-146.33
37414;BMP280;23279;46.472;30.760;2022-07-18T07:47:39;78284.22;;;-146.33
37414;BMP280;23279;46.472;30.760;2022-07-18T07:50:06;78239.44;;;-146.33
37414;BMP280;23279;46.472;30.760;2022-07-18T07:52:32;78184.50;;;-146.33
37414;BMP280;23279;46.472;30.760;2022-07-18T07:54:57;78219.09;;;-146.33
37414;BMP280;23279;46.472;30.760;2022-07-18T07:57:22;78206.88;;;-146.33
37414;BMP280;23279;46.472;30.760;2022-07-18T07:59:48;78210.97;;;-146.33
37414;BMP280;23279;46.472;30.760;2022-07-18T08:02:14;78190.59;;;-146.33
37414;BMP280;23279;46.472;30.760;2022-07-18T08:04:40;78149.91;;;-146.33
37414;BMP280;23279;46.472;30.760;2022-07-18T08:07:06;78166.19;;;-146.33
37414;BMP280;23279;46.472;30.760;2022-07-18T08:09:31;78133.63;;;-146.33
37414;BMP280;23279;46.472;30.760;2022-07-18T08:11:57;78105.13;;;-146.33
37414;BMP280;23279;46.472;30.760;2022-07-18T08:14:22;78139.72;;;-146.33
37414;BMP280;23279;46.472;30.760;2022-07-18T08:16:48;78156.00;;;-146.33
37414;BMP280;23279;46.472;30.760;2022-07-18T08:19:13;78141.75;;;-146.33
37414;BMP280;23279;46.472;30.760;2022-07-18T08:21:38;78121.41;;;-146.33
37414;BMP280;23279;46.472;30.760;2022-07-18T08:24:04;78097.00;;;-146.33
37414;BMP280;23279;46.472;30.760;2022-07-18T08:26:30;78080.72;;;-146.33
37414;BMP280;23279;46.472;30.760;2022-07-18T08:28:55;78094.97;;;-146.33
37414;BMP280;23279;46.472;30.760;2022-07-18T08:31:21;78076.66;;;-146.33
37414;BMP280;23279;46.472;30.760;2022-07-18T08:33:46;78040.03;;;-146.33
37414;BMP280;23279;46.472;30.760;2022-07-18T08:36:13;78031.88;;;-146.33
37414;BMP280;23279;46.472;30.760;2022-07-18T08:38:38;78007.47;;;-146.33
37414;BMP280;23279;46.472;30.760;2022-07-18T08:41:04;77991.19;;;-146.33
37414;BMP280;23279;46.472;30.760;2022-07-18T08:43:30;78027.81;;;-146.33
37414;BMP280;23279;46.472;30.760;2022-07-18T08:45:59;78060.38;;;-146.33
37414;BMP280;23279;46.472;30.760;2022-07-18T08:48:25;78084.78;;;-146.33
37414;BMP280;23279;46.472;30.760;2022-07-18T08:50:51;78072.56;;;-146.33
37414;BMP280;23279;46.472;30.760;2022-07-18T08:53:17;78048.16;;;-146.33
37414;BMP280;23279;46.472;30.760;2022-07-18T08:55:44;78001.34;;;-146.33
37414;BMP280;23279;46.472;30.760;2022-07-18T08:58:10;77983.03;;;-146.33
37414;BMP280;23279;46.472;30.760;2022-07-18T09:00:37;77946.41;;;-146.33
37414;BMP280;23279;46.472;30.760;2022-07-18T09:03:04;77983.03;;;-146.33
37414;BMP280;23279;46.472;30.760;2022-07-18T09:05:31;78009.50;;;-146.33
37414;BMP280;23279;46.472;30.760;2022-07-18T09:13:22;77926.06;;;-146.33
37414;BMP280;23279;46.472;30.760;2022-07-18T09:18:38;77905.72;;;-146.33
37414;BMP280;23279;46.472;30.760;2022-07-18T09:21:24;77911.81;;;-146.33
37414;BMP280;23279;46.472;30.760;2022-07-18T09:23:51;77928.09;;;-146.33
37414;BMP280;23279;46.472;30.760;2022-07-18T09:29:01;77899.59;;;-146.33
37414;BMP280;23279;46.472;30.760;2022-07-18T09:31:27;77875.19;;;-146.33
37414;BMP280;23279;46.472;30.760;2022-07-18T09:33:57;77926.06;;;-146.33
37414;BMP280;23279;46.472;30.760;2022-07-18T09:36:23;77960.66;;;-146.33
37414;BMP280;23279;46.472;30.760;2022-07-18T09:38:49;77985.06;;;-146.33
37414;BMP280;23279;46.472;30.760;2022-07-18T09:41:15;77985.06;;;-146.33
37414;BMP280;23279;46.472;30.760;2022-07-18T09:43:41;77978.97;;;-146.33
37414;BMP280;23279;46.472;30.760;2022-07-18T09:46:07;77999.31;;;-146.33
37414;BMP280;23279;46.472;30.760;2022-07-18T09:48:33;77946.41;;;-146.33
37414;BMP280;23279;46.472;30.760;2022-07-18T09:51:01;77915.88;;;-146.33
37414;BMP280;23279;46.472;30.760;2022-07-18T09:56:09;77844.66;;;-146.33
37414;BMP280;23279;46.472;30.760;2022-07-18T09:58:40;77883.34;;;-146.33
37414;BMP280;23279;46.472;30.760;2022-07-18T10:01:08;77871.13;;;-146.33
37414;BMP280;23279;46.472;30.760;2022-07-18T10:03:33;77877.22;;;-146.33
37414;BMP280;23279;46.472;30.760;2022-07-18T10:06:00;77816.19;;;-146.33
37414;BMP280;23279;46.472;30.760;2022-07-18T10:08:28;77777.53;;;-146.33
37414;BMP280;23279;46.472;30.760;2022-07-18T10:10:55;77799.91;;;-146.33
37414;BMP280;23279;46.472;30.760;2022-07-18T10:13:23;77793.81;;;-146.33
37414;BMP280;23279;46.472;30.760;2022-07-18T10:15:49;77822.28;;;-146.33
37414;BMP280;23279;46.472;30.760;2022-07-18T10:18:23;77860.94;;;-146.33
37414;BMP280;23279;46.472;30.760;2022-07-18T10:23:32;77873.16;;;-146.33
37414;BMP280;23279;46.472;30.760;2022-07-18T10:28:33;77942.34;;;-146.33
37414;BMP280;23279;46.472;30.760;2022-07-18T10:31:25;77915.88;;;-146.33
37414;BMP280;23279;46.472;30.760;2022-07-18T10:33:52;77922.00;;;-146.33
37414;BMP280;23279;46.472;30.760;2022-07-18T10:36:22;77911.81;;;-146.33
37414;BMP280;23279;46.472;30.760;2022-07-18T11:00:36;77917.94;;;-146.33
37414;BMP280;23279;46.472;30.760;2022-07-18T11:03:06;77897.56;;;-146.33
37414;BMP280;23279;46.472;30.760;2022-07-18T11:16:19;77891.47;;;-146.33
37414;BMP280;23279;46.472;30.760;2022-07-18T11:23:48;77871.13;;;-146.33
37414;BMP280;23279;46.472;30.760;2022-07-18T11:26:16;77873.16;;;-146.33
37414;BMP280;23279;46.472;30.760;2022-07-18T11:28:41;77875.19;;;-146.33
37414;BMP280;23279;46.472;30.760;2022-07-18T11:31:09;77871.13;;;-146.33
37414;BMP280;23279;46.472;30.760;2022-07-18T11:33:40;77869.09;;;-146.33
37414;BMP280;23279;46.472;30.760;2022-07-18T11:36:17;77852.81;;;-146.33
37414;BMP280;23279;46.472;30.760;2022-07-18T11:38:54;77871.13;;;-146.33
37414;BMP280;23279;46.472;30.760;2022-07-18T11:41:21;77854.84;;;-146.33
37414;BMP280;23279;46.472;30.760;2022-07-18T11:43:48;77840.59;;;-146.33
37414;BMP280;23279;46.472;30.760;2022-07-18T11:46:17;77840.59;;;-146.33
37414;BMP280;23279;46.472;30.760;2022-07-18T11:48:45;77836.53;;;-146.33
37414;BMP280;23279;46.472;30.760;2022-07-18T11:51:17;77828.41;;;-146.33
37414;BMP280;23279;46.472;30.760;2022-07-18T11:53:53;77836.53;;;-146.33
37414;BMP280;23279;46.472;30.760;2022-07-18T11:56:21;77832.47;;;-146.33
37414;BMP280;23279;46.472;30.760;2022-07-18T11:58:48;77840.59;;;-146.33
37414;BMP280;23279;46.472;30.760;2022-07-18T12:01:14;77814.16;;;-146.33
37414;BMP280;23279;46.472;30.760;2022-07-18T12:03:45;77816.19;;;-146.33
37414;BMP280;23279;46.472;30.760;2022-07-18T12:06:17;77816.19;;;-146.33
37414;BMP280;23279;46.472;30.760;2022-07-18T12:08:45;77810.06;;;-146.33
37414;BMP280;23279;46.472;30.760;2022-07-18T12:13:55;77806.00;;;-146.33
37414;BMP280;23279;46.472;30.760;2022-07-18T12:16:34;77801.94;;;-146.33
37414;BMP280;23279;46.472;30.760;2022-07-18T12:19:14;77803.97;;;-146.33
37414;BMP280;23279;46.472;30.760;2022-07-18T12:21:55;77787.69;;;-146.33
37414;BMP280;23279;46.472;30.760;2022-07-18T12:24:31;77795.84;;;-146.33
37414;BMP280;23279;46.472;30.760;2022-07-18T12:30:05;77767.34;;;-146.33
37414;BMP280;23279;46.472;30.760;2022-07-18T12:32:46;77761.25;;;-146.33
37414;BMP280;23279;46.472;30.760;2022-07-18T12:35:18;77757.19;;;-146.33
37414;BMP280;23279;46.472;30.760;2022-07-18T12:40:45;77755.16;;;-146.33
37414;BMP280;23279;46.472;30.760;2022-07-18T12:45:42;77749.03;;;-146.33
37414;BMP280;23279;46.472;30.760;2022-07-18T12:48:10;77763.28;;;-146.33
37414;BMP280;23279;46.472;30.760;2022-07-18T12:50:37;77734.78;;;-146.33
37414;BMP280;23279;46.472;30.760;2022-07-18T12:53:03;77706.31;;;-146.33
37414;BMP280;23279;46.472;30.760;2022-07-18T12:55:29;77643.22;;;-146.33
37414;BMP280;23279;46.472;30.760;2022-07-18T12:57:55;77657.47;;;-146.33
37414;BMP280;23279;46.472;30.760;2022-07-18T13:00:20;77702.25;;;-146.33
37414;BMP280;23279;46.472;30.760;2022-07-18T13:02:46;77692.06;;;-146.33
37414;BMP280;23279;46.472;30.760;2022-07-18T13:05:12;77724.63;;;-146.33
37414;BMP280;23279;46.472;30.760;2022-07-18T13:07:38;77751.06;;;-146.33
37414;BMP280;23279;46.472;30.760;2022-07-18T13:10:04;77753.09;;;-146.33
37414;BMP280;23279;46.472;30.760;2022-07-18T13:12:30;77783.63;;;-146.33
37414;BMP280;23279;46.472;30.760;2022-07-18T13:14:55;77761.25;;;-146.33
37414;BMP280;23279;46.472;30.760;2022-07-18T13:17:24;77732.75;;;-146.33
37414;BMP280;23279;46.472;30.760;2022-07-18T13:19:50;77744.97;;;-146.33
37414;BMP280;23279;46.472;30.760;2022-07-18T13:22:16;77730.72;;;-146.33
37414;BMP280;23279;46.472;30.760;2022-07-18T13:24:42;77712.41;;;-146.33
37414;BMP280;23279;46.472;30.760;2022-07-18T13:27:08;77702.25;;;-146.33
37414;BMP280;23279;46.472;30.760;2022-07-18T13:29:33;77714.44;;;-146.33
37414;BMP280;23279;46.472;30.760;2022-07-18T13:31:59;77734.78;;;-146.33
37414;BMP280;23279;46.472;30.760;2022-07-18T13:34:24;77738.88;;;-146.33
37414;BMP280;23279;46.472;30.760;2022-07-18T13:36:51;77732.75;;;-146.33
37414;BMP280;23279;46.472;30.760;2022-07-18T13:39:18;77720.56;;;-146.33
37414;BMP280;23279;46.472;30.760;2022-07-18T13:41:44;77732.75;;;-146.33
37414;BMP280;23279;46.472;30.760;2022-07-18T13:44:10;77736.81;;;-146.33
37414;BMP280;23279;46.472;30.760;2022-07-18T13:46:36;77747.00;;;-146.33
37414;BMP280;23279;46.472;30.760;2022-07-18T13:49:02;77751.06;;;-146.33
37414;BMP280;23279;46.472;30.760;2022-07-18T13:51:27;77747.00;;;-146.33
37414;BMP280;23279;46.472;30.760;2022-07-18T13:53:52;77730.72;;;-146.33
37414;BMP280;23279;46.472;30.760;2022-07-18T13:56:18;77728.69;;;-146.33
37414;BMP280;23279;46.472;30.760;2022-07-18T13:58:43;77698.16;;;-146.33
37414;BMP280;23279;46.472;30.760;2022-07-18T14:01:09;77696.13;;;-146.33
37414;BMP280;23279;46.472;30.760;2022-07-18T14:03:36;77677.81;;;-146.33
37414;BMP280;23279;46.472;30.760;2022-07-18T14:06:02;77681.88;;;-146.33
37414;BMP280;23279;46.472;30.760;2022-07-18T14:08:28;77702.25;;;-146.33
37414;BMP280;23279;46.472;30.760;2022-07-18T14:10:53;77698.16;;;-146.33
37414;BMP280;23279;46.472;30.760;2022-07-18T14:13:19;77702.25;;;-146.33
37414;BMP280;23279;46.472;30.760;2022-07-18T14:15:44;77681.88;;;-146.33
37414;BMP280;23279;46.472;30.760;2022-07-18T14:18:09;77649.34;;;-146.33
37414;BMP280;23279;46.472;30.760;2022-07-18T14:20:35;77608.66;;;-146.33
37414;BMP280;23279;46.472;30.760;2022-07-18T14:23:00;77570.00;;;-146.33
37414;BMP280;23279;46.472;30.760;2022-07-18T14:25:26;77535.41;;;-146.33
37414;BMP280;23279;46.472;30.760;2022-07-18T14:27:51;77541.50;;;-146.33
37414;BMP280;23279;46.472;30.760;2022-07-18T14:30:17;77549.66;;;-146.33
37414;BMP280;23279;46.472;30.760;2022-07-18T14:32:43;77570.00;;;-146.33
37414;BMP280;23279;46.472;30.760;2022-07-18T14:35:09;77572.03;;;-146.33
37414;BMP280;23279;46.472;30.760;2022-07-18T14:37:35;77555.75;;;-146.33
37414;BMP280;23279;46.472;30.760;2022-07-18T14:40:01;77515.06;;;-146.33
37414;BMP280;23279;46.472;30.760;2022-07-18T14:42:27;77492.69;;;-146.33
37414;BMP280;23279;46.472;30.760;2022-07-18T14:44:53;77572.03;;;-146.33
37414;BMP280;23279;46.472;30.760;2022-07-18T14:47:18;77620.84;;;-146.33
37414;BMP280;23279;46.472;30.760;2022-07-18T14:49:44;77653.41;;;-146.33
37414;BMP280;23279;46.472;30.760;2022-07-18T14:52:09;77633.06;;;-146.33
37414;BMP280;23279;46.472;30.760;2022-07-18T14:54:35;77576.09;;;-146.33
37414;BMP280;23279;46.472;30.760;2022-07-18T14:57:00;77502.84;;;-146.33
37414;BMP280;23279;46.472;30.760;2022-07-18T14:59:28;77382.81;;;-146.33
37414;BMP280;23279;46.472;30.760;2022-07-18T15:01:54;77213.97;;;-146.33
37414;BMP280;23279;46.472;30.760;2022-07-18T15:04:21;77083.75;;;-146.33
37414;BMP280;23279;46.472;30.760;2022-07-18T15:06:46;76973.91;;;-146.33
37414;BMP280;23279;46.472;30.760;2022-07-18T15:09:12;76908.81;;;-146.33
37414;BMP280;23279;46.472;30.760;2022-07-18T15:11:38;76904.75;;;-146.33
37414;BMP280;23279;46.472;30.760;2022-07-18T15:14:04;76967.81;;;-146.33
37414;BMP280;23279;46.472;30.760;2022-07-18T15:16:29;76961.72;;;-146.33
37414;BMP280;23279;46.472;30.760;2022-07-18T15:18:54;77018.66;;;-146.33
37414;BMP280;23279;46.472;30.760;2022-07-18T15:21:20;77144.78;;;-146.33
37414;BMP280;23279;46.472;30.760;2022-07-18T15:23:45;77124.44;;;-146.33
37414;BMP280;23279;46.472;30.760;2022-07-18T15:26:13;77213.97;;;-146.33
37414;BMP280;23279;46.472;30.760;2022-07-18T15:28:38;77218.03;;;-146.33
37414;BMP280;23279;46.472;30.760;2022-07-18T15:31:03;77270.91;;;-146.33
37414;BMP280;23279;46.472;30.760;2022-07-18T15:33:29;77277.03;;;-146.33
37414;BMP280;23279;46.472;30.760;2022-07-18T15:35:55;77352.28;;;-146.33
37414;BMP280;23279;46.472;30.760;2022-07-18T15:38:20;77413.31;;;-146.33
37414;BMP280;23279;46.472;30.760;2022-07-18T15:40:46;77451.97;;;-146.33
37414;BMP280;23279;46.472;30.760;2022-07-18T15:43:11;77498.78;;;-146.33
37414;BMP280;23279;46.472;30.760;2022-07-18T15:45:37;77543.53;;;-146.33
37414;BMP280;23279;46.472;30.760;2022-07-18T15:48:02;77584.22;;;-146.33
37414;BMP280;23279;46.472;30.760;2022-07-18T15:50:28;77596.44;;;-146.33
37414;BMP280;23279;46.472;30.760;2022-07-18T15:52:53;77616.78;;;-146.33
37414;BMP280;23279;46.472;30.760;2022-07-18T15:55:19;77618.81;;;-146.33
37414;BMP280;23279;46.472;30.760;2022-07-18T15:57:44;77620.84;;;-146.33
37414;BMP280;23279;46.472;30.760;2022-07-18T16:00:10;77610.69;;;-146.33
37414;BMP280;23279;46.472;30.760;2022-07-18T16:02:36;77631.03;;;-146.33
37414;BMP280;23279;46.472;30.760;2022-07-18T16:05:02;77649.34;;;-146.33
37414;BMP280;23279;46.472;30.760;2022-07-18T16:07:27;77649.34;;;-146.33
37414;BMP280;23279;46.472;30.760;2022-07-18T16:09:53;77649.34;;;-146.33
37414;BMP280;23279;46.472;30.760;2022-07-18T16:12:18;77633.06;;;-146.33
37414;BMP280;23279;46.472;30.760;2022-07-18T16:14:44;77618.81;;;-146.33
37414;BMP280;23279;46.472;30.760;2022-07-18T16:17:09;77629.00;;;-146.33
37414;BMP280;23279;46.472;30.760;2022-07-18T16:19:35;77649.34;;;-146.33
37414;BMP280;23279;46.472;30.760;2022-07-18T16:22:00;77618.81;;;-146.33
37414;BMP280;23279;46.472;30.760;2022-07-18T16:24:26;77651.38;;;-146.33
37414;BMP280;23279;46.472;30.760;2022-07-18T16:26:52;77649.34;;;-146.33
37414;BMP280;23279;46.472;30.760;2022-07-18T16:29:18;77696.13;;;-146.33
37414;BMP280;23279;46.472;30.760;2022-07-18T16:31:43;77751.06;;;-146.33
37414;BMP280;23279;46.472;30.760;2022-07-18T16:34:09;77759.22;;;-146.33
37414;BMP280;23279;46.472;30.760;2022-07-18T16:36:35;77759.22;;;-146.33
37414;BMP280;23279;46.472;30.760;2022-07-18T16:39:00;77769.38;;;-146.33
37414;BMP280;23279;46.472;30.760;2022-07-18T16:41:26;77767.34;;;-146.33
37414;BMP280;23279;46.472;30.760;2022-07-18T16:43:51;77820.25;;;-146.33
37414;BMP280;23279;46.472;30.760;2022-07-18T16:46:17;77808.03;;;-146.33
37414;BMP280;23279;46.472;30.760;2022-07-18T16:48:44;77787.69;;;-146.33
37414;BMP280;23279;46.472;30.760;2022-07-18T16:51:11;77787.69;;;-146.33
37414;BMP280;23279;46.472;30.760;2022-07-18T16:53:37;77763.28;;;-146.33
37414;BMP280;23279;46.472;30.760;2022-07-18T16:56:05;77781.59;;;-146.33
37414;BMP280;23279;46.472;30.760;2022-07-18T16:58:31;77767.34;;;-146.33
37414;BMP280;23279;46.472;30.760;2022-07-18T17:00:58;77795.84;;;-146.33
37414;BMP280;23279;46.472;30.760;2022-07-18T17:03:24;77791.78;;;-146.33
37414;BMP280;23279;46.472;30.760;2022-07-18T17:05:49;77791.78;;;-146.33
37414;BMP280;23279;46.472;30.760;2022-07-18T17:08:15;77765.31;;;-146.33
37414;BMP280;23279;46.472;30.760;2022-07-18T17:10:40;77763.28;;;-146.33
37414;BMP280;23279;46.472;30.760;2022-07-18T17:13:06;77765.31;;;-146.33
37414;BMP280;23279;46.472;30.760;2022-07-18T17:15:33;77771.41;;;-146.33
37414;BMP280;23279;46.472;30.760;2022-07-18T17:17:59;77777.53;;;-146.33
37414;BMP280;23279;46.472;30.760;2022-07-18T17:20:26;77777.53;;;-146.33
37414;BMP280;23279;46.472;30.760;2022-07-18T17:22:57;77785.66;;;-146.33
37414;BMP280;23279;46.472;30.760;2022-07-18T17:25:23;77791.78;;;-146.33
37414;BMP280;23279;46.472;30.760;2022-07-18T17:27:49;77832.47;;;-146.33
37414;BMP280;23279;46.472;30.760;2022-07-18T17:30:15;77860.94;;;-146.33
37414;BMP280;23279;46.472;30.760;2022-07-18T17:32:40;77899.59;;;-146.33
37414;BMP280;23279;46.472;30.760;2022-07-18T17:35:08;77919.97;;;-146.33
37414;BMP280;23279;46.472;30.760;2022-07-18T17:37:36;77954.56;;;-146.33
37414;BMP280;23279;46.472;30.760;2022-07-18T17:40:03;77956.59;;;-146.33
37414;BMP280;23279;46.472;30.760;2022-07-18T17:42:29;77966.75;;;-146.33
37414;BMP280;23279;46.472;30.760;2022-07-18T17:44:54;77954.56;;;-146.33
37414;BMP280;23279;46.472;30.760;2022-07-18T17:47:20;77946.41;;;-146.33
37414;BMP280;23279;46.472;30.760;2022-07-18T17:49:46;77938.28;;;-146.33
37414;BMP280;23279;46.472;30.760;2022-07-18T17:52:15;77928.09;;;-146.33
37414;BMP280;23279;46.472;30.760;2022-07-18T17:54:41;77917.94;;;-146.33
37414;BMP280;23279;46.472;30.760;2022-07-18T17:57:06;77909.78;;;-146.33
37414;BMP280;23279;46.472;30.760;2022-07-18T17:59:32;77909.78;;;-146.33
37414;BMP280;23279;46.472;30.760;2022-07-18T18:01:58;77932.16;;;-146.33
37414;BMP280;23279;46.472;30.760;2022-07-18T18:04:23;77934.19;;;-146.33
37414;BMP280;23279;46.472;30.760;2022-07-18T18:06:48;77930.13;;;-146.33
37414;BMP280;23279;46.472;30.760;2022-07-18T18:09:15;77934.19;;;-146.33
37414;BMP280;23279;46.472;30.760;2022-07-18T18:11:40;77938.28;;;-146.33
37414;BMP280;23279;46.472;30.760;2022-07-18T18:14:06;77962.69;;;-146.33
37414;BMP280;23279;46.472;30.760;2022-07-18T18:16:32;77987.13;;;-146.33
37414;BMP280;23279;46.472;30.760;2022-07-18T18:18:58;77993.22;;;-146.33
37414;BMP280;23279;46.472;30.760;2022-07-18T18:21:24;78005.44;;;-146.33
37414;BMP280;23279;46.472;30.760;2022-07-18T18:23:49;78013.56;;;-146.33
37414;BMP280;23279;46.472;30.760;2022-07-18T18:26:15;78035.94;;;-146.33
37414;BMP280;23279;46.472;30.760;2022-07-18T18:28:41;78052.22;;;-146.33
37414;BMP280;23279;46.472;30.760;2022-07-18T18:31:07;78056.28;;;-146.33
37414;BMP280;23279;46.472;30.760;2022-07-18T18:33:33;78064.44;;;-146.33
37414;BMP280;23279;46.472;30.760;2022-07-18T18:35:58;78060.38;;;-146.33
37414;BMP280;23279;46.472;30.760;2022-07-18T18:38:24;78060.38;;;-146.33
37414;BMP280;23279;46.472;30.760;2022-07-18T18:40:49;78072.56;;;-146.33
37414;BMP280;23279;46.472;30.760;2022-07-18T18:43:15;78078.69;;;-146.33
37414;BMP280;23279;46.472;30.760;2022-07-18T18:45:42;78082.75;;;-146.33
37414;BMP280;23279;46.472;30.760;2022-07-18T18:48:08;78094.97;;;-146.33
37414;BMP280;23279;46.472;30.760;2022-07-18T18:50:33;78099.03;;;-146.33
37414;BMP280;23279;46.472;30.760;2022-07-18T18:52:59;78105.13;;;-146.33
37414;BMP280;23279;46.472;30.760;2022-07-18T18:55:24;78109.22;;;-146.33
37414;BMP280;23279;46.472;30.760;2022-07-18T18:57:50;78115.31;;;-146.33
37414;BMP280;23279;46.472;30.760;2022-07-18T19:00:16;78121.41;;;-146.33
37414;BMP280;23279;46.472;30.760;2022-07-18T19:02:47;78125.47;;;-146.33
37414;BMP280;23279;46.472;30.760;2022-07-18T19:05:13;78129.56;;;-146.33
37414;BMP280;23279;46.472;30.760;2022-07-18T19:07:39;78129.56;;;-146.33
37414;BMP280;23279;46.472;30.760;2022-07-18T19:10:08;78143.81;;;-146.33
37414;BMP280;23279;46.472;30.760;2022-07-18T19:12:34;78137.69;;;-146.33
37414;BMP280;23279;46.472;30.760;2022-07-18T19:14:59;78135.66;;;-146.33
37414;BMP280;23279;46.472;30.760;2022-07-18T19:17:25;78131.59;;;-146.33
37414;BMP280;23279;46.472;30.760;2022-07-18T19:19:51;78137.69;;;-146.33
37414;BMP280;23279;46.472;30.760;2022-07-18T19:22:17;78141.75;;;-146.33
37414;BMP280;23279;46.472;30.760;2022-07-18T19:24:43;78153.97;;;-146.33
37414;BMP280;23279;46.472;30.760;2022-07-18T19:27:08;78147.88;;;-146.33
37414;BMP280;23279;46.472;30.760;2022-07-18T19:29:34;78162.13;;;-146.33
37414;BMP280;23279;46.472;30.760;2022-07-18T19:31:59;78174.31;;;-146.33
37414;BMP280;23279;46.472;30.760;2022-07-18T19:34:25;78170.25;;;-146.33
37414;BMP280;23279;46.472;30.760;2022-07-18T19:36:50;78170.25;;;-146.33
37414;BMP280;23279;46.472;30.760;2022-07-18T19:39:16;78172.28;;;-146.33
37414;BMP280;23279;46.472;30.760;2022-07-18T19:41:41;78178.41;;;-146.33
37414;BMP280;23279;46.472;30.760;2022-07-18T19:44:07;78188.56;;;-146.33
37414;BMP280;23279;46.472;30.760;2022-07-18T19:46:33;78184.50;;;-146.33
37414;BMP280;23279;46.472;30.760;2022-07-18T19:48:59;78184.50;;;-146.33
37414;BMP280;23279;46.472;30.760;2022-07-18T19:51:24;78174.31;;;-146.33
37414;BMP280;23279;46.472;30.760;2022-07-18T19:53:50;78182.47;;;-146.33
37414;BMP280;23279;46.472;30.760;2022-07-18T19:56:15;78194.69;;;-146.33
37414;BMP280;23279;46.472;30.760;2022-07-18T19:58:41;78174.31;;;-146.33
37414;BMP280;23279;46.472;30.760;2022-07-18T20:01:06;78186.53;;;-146.33
37414;BMP280;23279;46.472;30.760;2022-07-18T20:03:32;78182.47;;;-146.33
37414;BMP280;23279;46.472;30.760;2022-07-18T20:05:57;78170.25;;;-146.33
37414;BMP280;23279;46.472;30.760;2022-07-18T20:08:23;78172.28;;;-146.33
37414;BMP280;23279;46.472;30.760;2022-07-18T20:10:48;78176.34;;;-146.33
37414;BMP280;23279;46.472;30.760;2022-07-18T20:13:14;78180.44;;;-146.33
37414;BMP280;23279;46.472;30.760;2022-07-18T20:15:39;78190.59;;;-146.33
37414;BMP280;23279;46.472;30.760;2022-07-18T20:18:05;78188.56;;;-146.33
37414;BMP280;23279;46.472;30.760;2022-07-18T20:20:31;78194.69;;;-146.33
37414;BMP280;23279;46.472;30.760;2022-07-18T20:22:57;78194.69;;;-146.33
37414;BMP280;23279;46.472;30.760;2022-07-18T20:25:23;78194.69;;;-146.33
37414;BMP280;23279;46.472;30.760;2022-07-18T20:27:49;78192.66;;;-146.33
37414;BMP280;23279;46.472;30.760;2022-07-18T20:30:16;78192.66;;;-146.33
37414;BMP280;23279;46.472;30.760;2022-07-18T20:32:41;78194.69;;;-146.33
37414;BMP280;23279;46.472;30.760;2022-07-18T20:35:11;78202.81;;;-146.33
37414;BMP280;23279;46.472;30.760;2022-07-18T20:37:48;78198.75;;;-146.33
37414;BMP280;23279;46.472;30.760;2022-07-18T20:40:15;78196.72;;;-146.33
37414;BMP280;23279;46.472;30.760;2022-07-18T20:42:41;78194.69;;;-146.33
37414;BMP280;23279;46.472;30.760;2022-07-18T20:45:08;78182.47;;;-146.33
37414;BMP280;23279;46.472;30.760;2022-07-18T20:47:34;78188.56;;;-146.33
37414;BMP280;23279;46.472;30.760;2022-07-18T20:50:00;78186.53;;;-146.33
37414;BMP280;23279;46.472;30.760;2022-07-18T20:52:26;78192.66;;;-146.33
37414;BMP280;23279;46.472;30.760;2022-07-18T20:54:52;78192.66;;;-146.33
37414;BMP280;23279;46.472;30.760;2022-07-18T20:57:17;78194.69;;;-146.33
37414;BMP280;23279;46.472;30.760;2022-07-18T20:59:44;78190.59;;;-146.33
37414;BMP280;23279;46.472;30.760;2022-07-18T21:02:10;78194.69;;;-146.33
37414;BMP280;23279;46.472;30.760;2022-07-18T21:04:35;78180.44;;;-146.33
37414;BMP280;23279;46.472;30.760;2022-07-18T21:07:01;78180.44;;;-146.33
37414;BMP280;23279;46.472;30.760;2022-07-18T21:09:27;78200.78;;;-146.33
37414;BMP280;23279;46.472;30.760;2022-07-18T21:11:52;78206.88;;;-146.33
37414;BMP280;23279;46.472;30.760;2022-07-18T21:14:18;78202.81;;;-146.33
37414;BMP280;23279;46.472;30.760;2022-07-18T21:17:02;78190.59;;;-146.33
37414;BMP280;23279;46.472;30.760;2022-07-18T21:19:27;78200.78;;;-146.33
37414;BMP280;23279;46.472;30.760;2022-07-18T21:21:53;78200.78;;;-146.33
37414;BMP280;23279;46.472;30.760;2022-07-18T21:24:18;78196.72;;;-146.33
37414;BMP280;23279;46.472;30.760;2022-07-18T21:26:44;78184.50;;;-146.33
37414;BMP280;23279;46.472;30.760;2022-07-18T21:29:10;78188.56;;;-146.33
37414;BMP280;23279;46.472;30.760;2022-07-18T21:31:35;78190.59;;;-146.33